Ponderosa Estates, Washington
Current Conditions -  °F | °C
As of 3:38 PM on Saturday 25 Oct 2014 (Local Time) from KTCM Reporting Station
Broken Clouds Broken Clouds  
Wind Chill: 59°   Ceiling: 5000
Heat Index: 59°   Visibility: 10mi
Dew Point: 52°   Wind: 9mph
Humidity: 77%   Direction: 170°S
Pressure: 29.29"   Gusts: 21mph
Location:  47.1874°N, 122.164°W
Report Text: KTCM 252238Z AUTO 17008G18KT 10SM BKN050 15/11 A2929 RMK AO2
Loading
Personal Weather Stations






























Interactive Weather Map
Tropical Storm Tracking
New forecast layout! Learn more

10-Day Weather Forecast

Advertisements
Track Severe Weather on mobile